Avondale Estates, Georgia
Current Conditions -  °F | °C
As of 2:53 AM on Friday 28 Nov 2014 (Local Time) from KPDK Reporting Station
Clear Clear  
Wind Chill: 24°   Ceiling: Unl
Heat Index: 30°   Visibility: 10mi
Dew Point: 21°   Wind: 6mph
Humidity: 69%   Direction: 320°NW
Pressure: 30.36"   Gusts: NA
Location:  33.77°N, 84.27°W
Report Text: KPDK 280753Z AUTO 32005KT 10SM CLR M01/M06 A3036 RMK AO2 SLP296 T10111061
Loading
Personal Weather Stations






























Interactive Weather Map New forecast layout! Learn more

10-Day Weather Forecast

Advertisements
Track Severe Weather on mobile